createdAt,value
2018-12-05T00:02:08.071Z,58.96
2018-12-05T00:04:36.010Z,58.92
2018-12-05T00:07:03.782Z,59.16
2018-12-05T00:09:31.422Z,58.89
2018-12-05T00:11:59.271Z,58.93
2018-12-05T00:14:28.734Z,59.33
2018-12-05T00:16:56.471Z,59.23
2018-12-05T00:19:24.141Z,59.12
2018-12-05T00:21:53.198Z,58.99
2018-12-05T00:24:22.032Z,59.08
2018-12-05T00:26:58.946Z,59.20
2018-12-05T00:29:28.235Z,58.74
2018-12-05T00:31:55.975Z,58.75
2018-12-05T00:34:23.960Z,58.39
2018-12-05T00:36:51.925Z,58.83
2018-12-05T00:39:19.928Z,58.95
2018-12-05T00:41:47.741Z,58.41
2018-12-05T00:44:15.583Z,58.59
2018-12-05T00:46:44.429Z,58.45
2018-12-05T00:49:13.529Z,58.85
2018-12-05T00:51:41.764Z,58.78
2018-12-05T00:54:10.289Z,58.54
2018-12-05T00:56:38.216Z,58.99
2018-12-05T00:59:06.582Z,58.75
2018-12-05T01:01:34.628Z,58.77
2018-12-05T01:04:02.336Z,58.24
2018-12-05T01:06:30.347Z,58.55
2018-12-05T01:08:57.976Z,58.74
2018-12-05T01:11:26.224Z,58.64
2018-12-05T01:13:54.014Z,59.04
2018-12-05T01:16:21.744Z,58.37
2018-12-05T01:18:49.672Z,58.53
2018-12-05T01:21:17.640Z,58.72
2018-12-05T01:23:46.044Z,58.35
2018-12-05T01:26:14.085Z,58.81
2018-12-05T01:28:41.995Z,58.73
2018-12-05T01:31:09.637Z,59.20
2018-12-05T01:33:37.283Z,58.96
2018-12-05T01:36:04.957Z,58.79
2018-12-05T01:38:32.577Z,59.04
2018-12-05T01:41:00.187Z,58.94
2018-12-05T01:43:32.372Z,58.81
2018-12-05T01:46:00.028Z,59.05
2018-12-05T01:48:27.707Z,59.21
2018-12-05T01:50:55.416Z,59.33
2018-12-05T01:53:22.984Z,59.23
2018-12-05T01:55:50.656Z,59.59
2018-12-05T01:58:18.256Z,59.38
2018-12-05T02:00:45.874Z,59.27
2018-12-05T02:03:13.563Z,59.34
2018-12-05T02:05:41.208Z,59.47
2018-12-05T02:08:08.860Z,59.51
2018-12-05T02:10:36.449Z,59.41
2018-12-05T02:13:04.170Z,59.47
2018-12-05T02:15:31.736Z,59.22
2018-12-05T02:17:59.301Z,59.35
2018-12-05T02:20:26.938Z,59.69
2018-12-05T02:22:54.521Z,59.42
2018-12-05T02:25:22.235Z,59.41
2018-12-05T02:27:49.862Z,59.77
2018-12-05T02:30:17.472Z,59.72
2018-12-05T02:32:45.130Z,59.97
2018-12-05T02:35:12.779Z,59.71
2018-12-05T02:37:40.327Z,59.95
2018-12-05T02:40:08.117Z,59.84
2018-12-05T02:42:35.721Z,59.89
2018-12-05T02:45:03.322Z,59.91
2018-12-05T02:47:31.151Z,59.81
2018-12-05T02:49:58.824Z,59.73
2018-12-05T02:52:26.520Z,59.81
2018-12-05T02:54:54.159Z,59.81
2018-12-05T02:57:21.742Z,59.90
2018-12-05T02:59:49.363Z,59.86
2018-12-05T03:02:17.015Z,59.78
2018-12-05T03:04:44.706Z,59.90
2018-12-05T03:07:12.306Z,59.56
2018-12-05T03:09:40.083Z,59.60
2018-12-05T03:12:07.854Z,59.84
2018-12-05T03:14:42.153Z,59.79
2018-12-05T03:17:09.817Z,59.42
2018-12-05T03:19:37.467Z,59.71
2018-12-05T03:22:05.084Z,59.68
2018-12-05T03:24:32.720Z,59.80
2018-12-05T03:27:00.412Z,59.65
2018-12-05T03:29:28.086Z,60.19
2018-12-05T03:31:55.835Z,60.21
2018-12-05T03:34:23.450Z,60.53
2018-12-05T03:36:51.854Z,60.35
2018-12-05T03:39:19.607Z,60.35
2018-12-05T03:41:47.306Z,60.45
2018-12-05T03:44:14.928Z,60.30
2018-12-05T03:46:42.513Z,60.21
2018-12-05T03:49:10.292Z,59.93
2018-12-05T03:51:37.966Z,60.05
2018-12-05T03:54:05.557Z,60.10
2018-12-05T03:56:33.197Z,60.28
2018-12-05T03:59:00.847Z,60.26
2018-12-05T04:01:28.508Z,60.11
2018-12-05T04:03:56.116Z,60.20
2018-12-05T04:06:23.839Z,60.11
2018-12-05T04:08:51.482Z,60.04
2018-12-05T04:11:19.188Z,60.09
2018-12-05T04:13:46.833Z,60.36
2018-12-05T04:16:14.486Z,60.22
2018-12-05T04:18:42.133Z,60.34
2018-12-05T04:21:09.753Z,60.40
2018-12-05T04:23:37.515Z,60.51
2018-12-05T04:26:05.155Z,60.08
2018-12-05T04:28:32.766Z,60.38
2018-12-05T04:31:00.405Z,60.44
2018-12-05T04:33:27.992Z,60.52
2018-12-05T04:35:55.639Z,60.88
2018-12-05T04:38:23.252Z,60.74
2018-12-05T04:40:50.912Z,60.56
2018-12-05T04:43:18.572Z,60.27
2018-12-05T04:45:46.207Z,60.27
2018-12-05T04:48:13.834Z,60.57
2018-12-05T04:50:41.460Z,60.42
2018-12-05T04:53:09.062Z,60.48
2018-12-05T04:55:36.718Z,60.28
2018-12-05T04:58:04.416Z,60.49
2018-12-05T05:00:32.049Z,60.24
2018-12-05T05:02:59.747Z,60.34
2018-12-05T05:05:27.460Z,60.31
2018-12-05T05:07:55.085Z,60.05
2018-12-05T05:10:22.774Z,60.25
2018-12-05T05:12:50.421Z,60.25
2018-12-05T05:15:18.068Z,60.10
2018-12-05T05:17:45.674Z,59.90
2018-12-05T05:20:13.283Z,60.48
2018-12-05T05:22:40.957Z,60.08
2018-12-05T05:25:08.715Z,59.88
2018-12-05T05:27:36.392Z,60.04
2018-12-05T05:30:10.146Z,60.07
2018-12-05T05:32:37.788Z,60.16
2018-12-05T05:35:05.449Z,59.98
2018-12-05T05:37:33.084Z,60.00
2018-12-05T05:40:00.709Z,60.45
2018-12-05T05:42:29.537Z,60.86
2018-12-05T05:44:57.166Z,60.60
2018-12-05T05:47:25.005Z,60.71
2018-12-05T05:49:52.750Z,60.14
2018-12-05T05:52:20.393Z,60.05
2018-12-05T05:54:48.084Z,59.81
2018-12-05T05:57:15.786Z,59.83
2018-12-05T05:59:43.453Z,59.55
2018-12-05T06:02:11.068Z,59.33
2018-12-05T06:04:38.727Z,59.34
2018-12-05T06:07:06.413Z,59.13
2018-12-05T06:09:34.038Z,59.36
2018-12-05T06:12:01.711Z,59.42
2018-12-05T06:14:29.336Z,59.43
2018-12-05T06:16:57.091Z,59.46
2018-12-05T06:19:24.846Z,59.03
2018-12-05T06:21:52.504Z,59.72
2018-12-05T06:24:20.183Z,59.65
2018-12-05T06:26:47.852Z,59.31
2018-12-05T06:29:15.473Z,59.85
2018-12-05T06:31:43.132Z,60.12
2018-12-05T06:34:10.753Z,60.11
2018-12-05T06:36:38.432Z,59.73
2018-12-05T06:39:06.630Z,59.99
2018-12-05T06:41:34.245Z,60.16
2018-12-05T06:44:01.904Z,60.08
2018-12-05T06:46:29.518Z,60.38
2018-12-05T06:48:57.165Z,60.06
2018-12-05T06:51:25.059Z,60.13
2018-12-05T06:53:52.756Z,59.89
2018-12-05T06:56:20.398Z,59.79
2018-12-05T06:58:48.033Z,60.32
2018-12-05T07:01:15.670Z,60.17
2018-12-05T07:03:43.251Z,60.33
2018-12-05T07:06:10.959Z,60.39
2018-12-05T07:08:38.587Z,60.12
2018-12-05T07:11:06.203Z,60.08
2018-12-05T07:13:33.903Z,59.74
2018-12-05T07:16:01.515Z,59.93
2018-12-05T07:18:29.163Z,59.96
2018-12-05T07:20:56.831Z,59.97
2018-12-05T07:23:24.719Z,60.10
2018-12-05T07:25:52.736Z,60.03
2018-12-05T07:28:20.407Z,59.51
2018-12-05T07:30:48.071Z,59.54
2018-12-05T07:33:15.750Z,59.52
2018-12-05T07:35:43.368Z,59.51
2018-12-05T07:38:11.071Z,59.53
2018-12-05T07:40:38.724Z,59.41
2018-12-05T07:43:06.380Z,59.35
2018-12-05T07:45:33.988Z,59.53
2018-12-05T07:48:01.663Z,59.40
2018-12-05T07:50:29.318Z,59.29
2018-12-05T07:52:56.967Z,59.35
2018-12-05T07:55:24.606Z,59.46
2018-12-05T07:57:52.192Z,59.25
2018-12-05T08:00:19.852Z,59.13
2018-12-05T08:02:47.449Z,59.02
2018-12-05T08:05:15.208Z,58.86
2018-12-05T08:07:42.833Z,58.92
2018-12-05T08:10:10.463Z,58.81
2018-12-05T08:12:38.156Z,58.95
2018-12-05T08:15:07.085Z,58.68
2018-12-05T08:17:34.762Z,58.72
2018-12-05T08:20:02.364Z,58.64
2018-12-05T08:22:29.983Z,58.63
2018-12-05T08:24:57.595Z,58.91
2018-12-05T08:27:25.215Z,58.55
2018-12-05T08:29:52.860Z,58.59
2018-12-05T08:32:20.541Z,58.47
2018-12-05T08:34:48.330Z,58.70
2018-12-05T08:37:15.960Z,58.27
2018-12-05T08:39:43.654Z,58.34
2018-12-05T08:42:11.249Z,58.34
2018-12-05T08:44:38.887Z,58.51
2018-12-05T08:47:06.513Z,58.25
2018-12-05T08:49:34.101Z,58.34
2018-12-05T08:52:02.085Z,58.34
2018-12-05T08:54:29.704Z,58.34
2018-12-05T08:56:57.395Z,58.06
2018-12-05T08:59:24.965Z,58.21
2018-12-05T09:01:52.642Z,58.02
2018-12-05T09:04:20.247Z,57.91
2018-12-05T09:06:47.907Z,58.01
2018-12-05T09:09:15.571Z,58.13
2018-12-05T09:11:43.222Z,58.13
2018-12-05T09:14:10.806Z,57.85
2018-12-05T09:16:38.483Z,57.96
2018-12-05T09:19:06.149Z,57.86
2018-12-05T09:21:33.767Z,57.65
2018-12-05T09:24:01.367Z,57.37
2018-12-05T09:26:28.961Z,57.37
2018-12-05T09:28:57.326Z,57.58
2018-12-05T09:31:25.167Z,57.50
2018-12-05T09:33:52.925Z,57.55
2018-12-05T09:36:20.539Z,57.29
2018-12-05T09:38:48.145Z,57.23
2018-12-05T09:41:15.753Z,57.22
2018-12-05T09:43:43.308Z,57.29
2018-12-05T09:46:10.942Z,57.25
2018-12-05T09:48:38.569Z,56.91
2018-12-05T09:51:06.178Z,57.17
2018-12-05T09:53:33.810Z,56.95
2018-12-05T09:56:01.497Z,56.83
2018-12-05T09:58:29.068Z,56.87
2018-12-05T10:00:56.810Z,56.95
2018-12-05T10:03:24.458Z,56.70
2018-12-05T10:05:52.050Z,56.64
2018-12-05T10:08:19.731Z,56.49
2018-12-05T10:10:47.573Z,56.67
2018-12-05T10:13:15.176Z,56.53
2018-12-05T10:15:42.883Z,56.58
2018-12-05T10:18:10.453Z,56.42
2018-12-05T10:20:38.037Z,56.48
2018-12-05T10:23:05.667Z,56.45
2018-12-05T10:25:33.339Z,56.44
2018-12-05T10:28:00.957Z,56.49
2018-12-05T10:30:28.612Z,56.40
2018-12-05T10:32:56.208Z,56.20
2018-12-05T10:35:23.827Z,56.15
2018-12-05T10:37:51.515Z,56.13
2018-12-05T10:40:19.220Z,56.14
2018-12-05T10:42:46.855Z,56.24
2018-12-05T10:45:14.503Z,56.21
2018-12-05T10:47:42.166Z,56.18
2018-12-05T10:50:09.785Z,56.20
2018-12-05T10:52:37.423Z,55.89
2018-12-05T10:55:05.228Z,56.08
2018-12-05T10:57:32.799Z,56.01
2018-12-05T11:00:00.391Z,56.00
2018-12-05T11:02:33.696Z,55.95
2018-12-05T11:06:07.740Z,55.82
2018-12-05T11:08:40.863Z,55.80
2018-12-05T11:11:14.159Z,55.94
2018-12-05T11:13:47.399Z,55.78
2018-12-05T11:16:20.741Z,55.62
2018-12-05T11:18:54.028Z,56.06
2018-12-05T11:21:27.324Z,56.11
2018-12-05T11:26:02.857Z,56.05
2018-12-05T11:28:30.540Z,56.42
2018-12-05T11:30:58.479Z,56.46
2018-12-05T11:33:26.082Z,56.79
2018-12-05T11:35:53.730Z,56.90
2018-12-05T11:38:21.385Z,57.01
2018-12-05T11:40:49.085Z,56.87
2018-12-05T11:43:16.794Z,56.30
2018-12-05T11:45:44.409Z,56.64
2018-12-05T11:48:12.048Z,56.58
2018-12-05T11:50:39.633Z,56.63
2018-12-05T11:53:07.255Z,56.76
2018-12-05T11:55:34.868Z,56.55
2018-12-05T11:58:02.672Z,56.71
2018-12-05T12:00:30.373Z,56.55
2018-12-05T12:03:04.801Z,56.78
2018-12-05T12:05:32.379Z,56.49
2018-12-05T12:08:00.354Z,56.75
2018-12-05T12:10:34.179Z,56.80
2018-12-05T12:13:06.948Z,56.69
2018-12-05T12:15:34.651Z,56.88
2018-12-05T12:18:03.500Z,57.16
2018-12-05T12:20:31.183Z,56.62
2018-12-05T12:22:58.850Z,56.78
2018-12-05T12:25:26.466Z,56.59
2018-12-05T12:27:54.104Z,55.62
2018-12-05T12:30:21.728Z,54.85
2018-12-05T12:32:49.471Z,55.18
2018-12-05T12:35:17.122Z,55.17
2018-12-05T12:37:44.830Z,54.67
2018-12-05T12:40:12.496Z,55.17
2018-12-05T12:42:40.063Z,54.60
2018-12-05T12:45:07.637Z,54.68
2018-12-05T12:47:35.285Z,55.33
2018-12-05T12:50:03.150Z,55.00
2018-12-05T12:52:30.750Z,55.03
2018-12-05T12:54:58.370Z,55.53
2018-12-05T12:57:26.024Z,55.27
2018-12-05T12:59:53.675Z,55.68
2018-12-05T13:02:21.447Z,55.10
2018-12-05T13:04:49.048Z,55.21
2018-12-05T13:07:16.678Z,55.66
2018-12-05T13:09:44.407Z,55.81
2018-12-05T13:12:16.510Z,56.32
2018-12-05T13:14:44.135Z,55.75
2018-12-05T13:17:11.741Z,55.35
2018-12-05T13:19:39.391Z,55.34
2018-12-05T13:22:07.022Z,55.28
2018-12-05T13:24:34.641Z,55.13
2018-12-05T13:27:02.339Z,55.21
2018-12-05T13:29:29.982Z,55.07
2018-12-05T13:31:57.675Z,55.18
2018-12-05T13:34:25.234Z,55.08
2018-12-05T13:36:52.811Z,54.86
2018-12-05T13:39:20.459Z,54.72
2018-12-05T13:41:48.000Z,55.03
2018-12-05T13:44:15.735Z,54.89
2018-12-05T13:46:43.314Z,55.50
2018-12-05T13:49:10.964Z,55.13
2018-12-05T13:51:38.584Z,55.39
2018-12-05T13:54:06.242Z,54.69
2018-12-05T13:56:33.856Z,54.51
2018-12-05T13:59:01.536Z,55.20
2018-12-05T14:01:29.132Z,54.54
2018-12-05T14:03:56.749Z,54.51
2018-12-05T14:06:24.365Z,55.10
2018-12-05T14:08:51.933Z,55.13
2018-12-05T14:11:19.569Z,54.61
2018-12-05T14:13:47.356Z,54.86
2018-12-05T14:16:15.087Z,54.61
2018-12-05T14:18:42.673Z,54.52
2018-12-05T14:21:10.297Z,55.16
2018-12-05T14:23:37.916Z,54.77
2018-12-05T14:26:05.991Z,54.80
2018-12-05T14:28:33.627Z,55.37
2018-12-05T14:31:01.247Z,54.82
2018-12-05T14:33:28.879Z,55.45
2018-12-05T14:35:56.532Z,55.24
2018-12-05T14:38:24.256Z,55.50
2018-12-05T14:40:51.825Z,55.71
2018-12-05T14:43:19.614Z,55.18
2018-12-05T14:45:47.194Z,55.43
2018-12-05T14:48:14.777Z,55.50
2018-12-05T14:50:42.402Z,55.69
2018-12-05T14:53:10.118Z,55.58
2018-12-05T14:55:37.851Z,55.52
2018-12-05T14:58:05.435Z,55.76
2018-12-05T15:00:33.102Z,55.54
2018-12-05T15:03:00.770Z,55.55
2018-12-05T15:05:28.440Z,55.82
2018-12-05T15:07:56.583Z,55.89
2018-12-05T15:10:24.568Z,55.67
2018-12-05T15:12:52.312Z,55.73
2018-12-05T15:15:19.912Z,55.85
2018-12-05T15:17:47.592Z,55.77
2018-12-05T15:20:15.250Z,56.08
2018-12-05T15:22:42.806Z,55.89
2018-12-05T15:25:11.278Z,55.89
2018-12-05T15:27:38.891Z,56.13
2018-12-05T15:30:06.583Z,56.14
2018-12-05T15:32:34.155Z,56.29
2018-12-05T15:35:01.773Z,56.12
2018-12-05T15:37:29.397Z,56.17
2018-12-05T15:39:57.108Z,56.05
2018-12-05T15:42:24.717Z,55.76
2018-12-05T15:44:52.322Z,55.94
2018-12-05T15:47:19.956Z,55.79
2018-12-05T15:49:47.532Z,56.04
2018-12-05T15:52:15.146Z,55.83
2018-12-05T15:54:42.767Z,55.88
2018-12-05T15:57:10.401Z,55.78
2018-12-05T15:59:38.130Z,55.96
2018-12-05T16:02:05.748Z,55.90
2018-12-05T16:04:33.419Z,56.02
2018-12-05T16:07:01.046Z,55.96
2018-12-05T16:09:28.686Z,56.01
2018-12-05T16:11:56.396Z,56.09
2018-12-05T16:14:24.001Z,56.04
2018-12-05T16:16:51.586Z,56.16
2018-12-05T16:19:19.216Z,56.04
2018-12-05T16:21:46.794Z,55.96
2018-12-05T16:24:14.410Z,56.16
2018-12-05T16:26:42.064Z,55.88
2018-12-05T16:29:09.720Z,56.08
2018-12-05T16:31:37.312Z,56.17
2018-12-05T16:34:04.901Z,56.05
2018-12-05T16:36:32.522Z,56.17
2018-12-05T16:39:00.089Z,56.17
2018-12-05T16:41:27.779Z,56.14
2018-12-05T16:43:55.401Z,56.06
2018-12-05T16:46:22.983Z,56.23
2018-12-05T16:48:50.575Z,56.16
2018-12-05T16:51:18.285Z,56.06
2018-12-05T16:53:45.899Z,55.92
2018-12-05T16:56:13.542Z,55.96
2018-12-05T16:58:41.229Z,56.05
2018-12-05T17:01:08.889Z,55.88
2018-12-05T17:03:36.538Z,55.86
2018-12-05T17:06:04.231Z,55.71
2018-12-05T17:08:31.853Z,55.86
2018-12-05T17:10:59.625Z,55.82
2018-12-05T17:13:27.307Z,55.92
2018-12-05T17:15:54.931Z,55.95
2018-12-05T17:18:22.619Z,55.66
2018-12-05T17:20:50.225Z,55.73
2018-12-05T17:23:17.816Z,55.88
2018-12-05T17:25:45.433Z,55.65
2018-12-05T17:28:13.054Z,55.63
2018-12-05T17:30:40.672Z,55.52
2018-12-05T17:33:08.270Z,55.76
2018-12-05T17:35:35.908Z,55.64
2018-12-05T17:38:03.457Z,55.76
2018-12-05T17:40:31.098Z,55.63
2018-12-05T17:42:58.687Z,55.78
2018-12-05T17:45:26.364Z,55.79
2018-12-05T17:47:54.001Z,55.76
2018-12-05T17:50:21.606Z,55.56
2018-12-05T17:52:49.203Z,55.58
2018-12-05T17:55:16.816Z,55.62
2018-12-05T17:57:44.472Z,55.94
2018-12-05T18:00:12.067Z,55.62
2018-12-05T18:02:39.612Z,55.90
2018-12-05T18:05:07.264Z,55.66
2018-12-05T18:07:34.833Z,55.71
2018-12-05T18:10:02.393Z,55.67
2018-12-05T18:12:30.012Z,55.69
2018-12-05T18:14:57.647Z,55.62
2018-12-05T18:17:25.249Z,55.57
2018-12-05T18:19:52.827Z,55.57
2018-12-05T18:22:20.447Z,55.64
2018-12-05T18:24:48.062Z,55.52
2018-12-05T18:27:15.731Z,55.46
2018-12-05T18:29:43.499Z,55.45
2018-12-05T18:32:11.099Z,55.66
2018-12-05T18:34:38.688Z,55.47
2018-12-05T18:37:06.386Z,55.33
2018-12-05T18:39:33.966Z,55.35
2018-12-05T18:42:01.555Z,55.56
2018-12-05T18:44:29.168Z,55.19
2018-12-05T18:46:56.760Z,55.32
2018-12-05T18:49:24.469Z,55.25
2018-12-05T18:51:52.013Z,55.37
2018-12-05T18:54:19.608Z,55.41
2018-12-05T18:56:47.244Z,55.00
2018-12-05T18:59:14.829Z,55.25
2018-12-05T19:01:42.443Z,55.22
2018-12-05T19:04:10.158Z,55.08
2018-12-05T19:06:37.731Z,55.11
2018-12-05T19:09:07.300Z,55.31
2018-12-05T19:11:35.059Z,55.66
2018-12-05T19:14:08.328Z,55.75
2018-12-05T19:16:35.957Z,56.00
2018-12-05T19:19:05.060Z,55.82
2018-12-05T19:21:32.776Z,55.77
2018-12-05T19:24:00.492Z,55.71
2018-12-05T19:26:28.137Z,55.86
2018-12-05T19:28:55.853Z,55.73
2018-12-05T19:31:23.637Z,55.74
2018-12-05T19:33:51.319Z,55.92
2018-12-05T19:36:18.997Z,55.76
2018-12-05T19:38:46.614Z,55.86
2018-12-05T19:41:14.212Z,55.93
2018-12-05T19:43:41.884Z,55.85
2018-12-05T19:46:09.686Z,55.88
2018-12-05T19:48:37.317Z,55.89
2018-12-05T19:51:04.944Z,56.12
2018-12-05T19:53:32.545Z,55.98
2018-12-05T19:56:00.181Z,55.97
2018-12-05T19:58:27.804Z,55.76
2018-12-05T20:00:55.445Z,56.59
2018-12-05T20:03:23.043Z,56.07
2018-12-05T20:05:50.682Z,56.23
2018-12-05T20:08:18.258Z,56.14
2018-12-05T20:10:46.006Z,55.86
2018-12-05T20:13:13.651Z,55.70
2018-12-05T20:15:41.244Z,56.22
2018-12-05T20:18:08.870Z,55.62
2018-12-05T20:20:36.499Z,56.25
2018-12-05T20:23:04.088Z,56.09
2018-12-05T20:25:31.696Z,56.12
2018-12-05T20:27:59.314Z,55.60
2018-12-05T20:30:26.951Z,55.89
2018-12-05T20:32:54.590Z,56.30
2018-12-05T20:35:22.341Z,56.13
2018-12-05T20:37:49.946Z,56.60
2018-12-05T20:40:17.581Z,56.56
2018-12-05T20:42:45.287Z,56.80
2018-12-05T20:45:12.921Z,56.53
2018-12-05T20:47:40.496Z,56.59
2018-12-05T20:50:08.155Z,56.62
2018-12-05T20:52:35.804Z,56.87
2018-12-05T20:55:03.428Z,56.73
2018-12-05T20:57:31.123Z,56.74
2018-12-05T20:59:58.923Z,56.69
2018-12-05T21:02:26.552Z,57.02
2018-12-05T21:04:55.861Z,57.06
2018-12-05T21:07:23.808Z,56.99
2018-12-05T21:09:51.491Z,56.77
2018-12-05T21:12:19.124Z,57.13
2018-12-05T21:14:46.739Z,57.05
2018-12-05T21:17:14.372Z,56.78
2018-12-05T21:19:41.953Z,56.87
2018-12-05T21:22:09.753Z,57.09
2018-12-05T21:24:37.385Z,56.98
2018-12-05T21:27:04.991Z,56.94
2018-12-05T21:29:32.640Z,56.97
2018-12-05T21:32:00.243Z,56.93
2018-12-05T21:34:27.859Z,57.11
2018-12-05T21:36:55.624Z,57.03
2018-12-05T21:39:23.239Z,56.88
2018-12-05T21:41:51.974Z,56.79
2018-12-05T21:44:19.598Z,57.03
2018-12-05T21:46:47.198Z,56.65
2018-12-05T21:49:14.858Z,57.10
2018-12-05T21:51:42.517Z,56.75
2018-12-05T21:54:10.121Z,56.75
2018-12-05T21:56:44.378Z,56.75
2018-12-05T21:59:11.972Z,56.82
2018-12-05T22:01:39.555Z,57.26
2018-12-05T22:04:07.202Z,57.08
2018-12-05T22:06:34.853Z,57.25
2018-12-05T22:09:03.177Z,57.39
2018-12-05T22:11:30.787Z,57.43
2018-12-05T22:13:58.367Z,57.36
2018-12-05T22:16:25.979Z,57.27
2018-12-05T22:18:53.584Z,57.33
2018-12-05T22:21:21.291Z,57.49
2018-12-05T22:23:48.944Z,57.51
2018-12-05T22:26:16.709Z,57.56
2018-12-05T22:28:44.397Z,57.44
2018-12-05T22:31:12.099Z,57.79
2018-12-05T22:33:40.259Z,57.78
2018-12-05T22:36:07.979Z,57.56
2018-12-05T22:38:35.649Z,57.48
2018-12-05T22:41:03.237Z,57.65
2018-12-05T22:43:30.836Z,57.34
2018-12-05T22:45:58.433Z,57.42
2018-12-05T22:48:26.056Z,57.60
2018-12-05T22:50:53.679Z,57.54
2018-12-05T22:53:21.327Z,57.45
2018-12-05T22:55:49.223Z,57.24
2018-12-05T22:58:16.817Z,57.40
2018-12-05T23:00:46.360Z,57.34
2018-12-05T23:03:13.987Z,57.41
2018-12-05T23:05:41.590Z,57.46
2018-12-05T23:08:09.212Z,57.43
2018-12-05T23:10:36.973Z,57.37
2018-12-05T23:13:04.588Z,57.19
2018-12-05T23:15:32.252Z,57.18
2018-12-05T23:17:59.960Z,57.27
2018-12-05T23:20:27.610Z,57.37
2018-12-05T23:22:55.181Z,57.54
2018-12-05T23:25:22.771Z,56.82
2018-12-05T23:27:52.092Z,56.95
2018-12-05T23:30:21.302Z,57.37
2018-12-05T23:32:48.943Z,57.11
2018-12-05T23:35:16.585Z,57.15
2018-12-05T23:37:44.239Z,57.49
2018-12-05T23:40:11.847Z,57.33
2018-12-05T23:42:39.662Z,57.25
2018-12-05T23:45:07.593Z,57.42
2018-12-05T23:47:35.229Z,57.45
2018-12-05T23:50:02.947Z,57.32
2018-12-05T23:52:30.561Z,57.42
2018-12-05T23:54:58.181Z,57.39
2018-12-05T23:57:25.821Z,57.31
2018-12-05T23:59:53.431Z,57.33
